Bom Despacho, Brazil
Current Conditions -  °F | °C
As of 7:20 PM on Wednesday 26 Nov 2014 (Local Time) from SBPR Reporting Station
Overcast Overcast  
Wind Chill: 73°   Ceiling: 8000
Heat Index: 73°   Visibility: 6mi
Dew Point: 68°   Wind: 6mph
Humidity: 83%   Direction: 360°N
Pressure: 29.94"   Gusts: NA
Location:  19.73°S, 45.26°W
Report Text: SBPR 262120Z 36005KT 9999 SCT020 OVC080 23/20 Q1014
Loading
Personal Weather Stations






























Interactive Weather Map New forecast layout! Learn more

10-Day Weather Forecast

Advertisements
Track Severe Weather on mobile